| time (UTC) | temp F | wind direction | speed knots | gust knots | rain 1hr in | rain 24hr in | rain mn in | humidity % | barometer mb |
| 20260904130012 | 54 | 107 | 0.0 | 3.5 | 0.00 | 0.03 | 0.00 | 95 | 1010.3 |
| 20260904124601 | 54 | 107 | 0.0 | 1.7 | 0.00 | 0.03 | 0.00 | 95 | 1010.3 |
| 20260904123054 | 55 | 107 | 0.0 | 0.0 | 0.00 | 0.03 | 0.00 | 94 | 1010.2 |
| 20260904121536 | 55 | 107 | 0.0 | 0.0 | 0.00 | 0.03 | 0.00 | 94 | 1010.2 |
| 20260904120051 | 55 | 107 | 0.0 | 2.6 | 0.00 | 0.03 | 0.00 | 94 | 1010.1 |
| 20260904114514 | 55 | 107 | 0.0 | 0.0 | 0.00 | 0.03 | 0.00 | 93 | 1010.0 |
| 20260904113012 | 55 | 107 | 0.0 | 0.0 | 0.00 | 0.03 | 0.00 | 93 | 1009.8 |
| 20260904111555 | 55 | 107 | 0.0 | 0.0 | 0.00 | 0.03 | 0.00 | 93 | 1009.6 |
| 20260904110053 | 55 | 107 | 0.0 | 0.0 | 0.00 | 0.03 | 0.00 | 93 | 1009.6 |
| 20260904104559 | 55 | 107 | 0.0 | 0.0 | 0.00 | 0.03 | 0.00 | 93 | 1009.5 |
| 20260904103035 | 55 | 107 | 0.0 | 2.6 | 0.00 | 0.03 | 0.00 | 93 | 1009.5 |
| 20260904101519 | 55 | 113 | 0.0 | 2.6 | 0.00 | 0.03 | 0.00 | 93 | 1009.4 |
| 20260904100015 | 55 | 113 | 0.0 | 0.0 | 0.00 | 0.03 | 0.00 | 93 | 1009.4 |
| 20260904094618 | 55 | 134 | 0.0 | 3.5 | 0.00 | 0.03 | 0.00 | 93 | 1009.3 |
| 20260904093103 | 55 | 169 | 0.0 | 2.6 | 0.00 | 0.03 | 0.00 | 93 | 1009.2 |
| 20260904091556 | 54 | 169 | 0.0 | 0.0 | 0.00 | 0.03 | 0.00 | 93 | 1009.1 |
| 20260904090038 | 55 | 169 | 0.0 | 0.0 | 0.00 | 0.03 | 0.00 | 93 | 1009.0 |
| 20260904084537 | 55 | 169 | 0.0 | 0.0 | 0.00 | 0.03 | 0.00 | 93 | 1009.2 |
| 20260904083018 | 55 | 169 | 0.0 | 0.0 | 0.00 | 0.03 | 0.00 | 92 | 1009.2 |
| 20260904081518 | 55 | 169 | 0.0 | 0.0 | 0.00 | 0.03 | 0.00 | 92 | 1009.2 |
| 20260904080133 | 55 | 169 | 0.0 | 0.0 | 0.00 | 0.03 | 0.00 | 92 | 1009.1 |
| 20260904074608 | 55 | 169 | 0.0 | 0.0 | 0.00 | 0.04 | 0.00 | 92 | 1009.2 |
| 20260904073041 | 55 | 169 | 0.0 | 0.0 | 0.00 | 0.04 | 0.00 | 91 | 1009.2 |
| 20260904071542 | 55 | 169 | 0.0 | 0.0 | 0.00 | 0.04 | 0.00 | 91 | 1009.2 |
| 20260904070037 | 55 | 169 | 0.0 | 0.0 | 0.00 | 0.04 | 0.00 | 90 | 1009.1 |
| 20260904064522 | 55 | 169 | 0.0 | 0.0 | 0.00 | 0.04 | 0.00 | 90 | 1009.1 |
| 20260904063004 | 55 | 169 | 0.0 | 0.0 | 0.00 | 0.04 | 0.00 | 90 | 1009.1 |
| 20260904061507 | 55 | 169 | 0.0 | 0.0 | 0.00 | 0.04 | 0.00 | 90 | 1009.2 |
| 20260904060112 | 56 | 169 | 0.0 | 0.0 | 0.00 | 0.04 | 0.00 | 90 | 1009.2 |
| 20260904054543 | 56 | 169 | 0.0 | 0.0 | 0.00 | 0.04 | 0.00 | 89 | 1009.3 |
| 20260904053043 | 56 | 169 | 0.0 | 0.0 | 0.00 | 0.04 | 0.00 | 89 | 1009.2 |
| 20260904051523 | 57 | 169 | 0.0 | 0.0 | 0.00 | 0.04 | 0.00 | 88 | 1009.4 |
| 20260904050013 | 57 | 169 | 0.0 | 0.0 | 0.00 | 0.04 | 0.00 | 87 | 1009.4 |
| 20260904044510 | 57 | 169 | 0.0 | 0.0 | 0.00 | 0.04 | 0.00 | 88 | 1009.3 |
| 20260904043048 | 57 | 169 | 0.0 | 0.0 | 0.00 | 0.04 | 0.00 | 87 | 1009.3 |
| 20260904041547 | 57 | 169 | 0.0 | 0.0 | 0.00 | 0.04 | 0.00 | 88 | 1009.3 |
| 20260904040027 | 57 | 169 | 0.0 | 0.0 | 0.00 | 0.04 | 0.00 | 88 | 1009.4 |
| 20260904034526 | 57 | 169 | 0.0 | 0.0 | 0.00 | 0.04 | 0.00 | 87 | 1009.2 |
| 20260904033006 | 57 | 169 | 0.0 | 0.0 | 0.00 | 0.04 | 0.00 | 87 | 1009.1 |
| 20260904031504 | 57 | 169 | 0.0 | 0.0 | 0.00 | 0.04 | 0.00 | 86 | 1008.9 |
| 20260904030045 | 57 | 169 | 0.0 | 0.0 | 0.00 | 0.04 | 0.00 | 85 | 1008.8 |
| 20260904024544 | 58 | 169 | 0.0 | 0.0 | 0.00 | 0.04 | 0.00 | 83 | 1008.6 |
| 20260904023022 | 58 | 169 | 0.0 | 0.0 | 0.00 | 0.04 | 0.00 | 81 | 1008.6 |
| 20260904021523 | 59 | 169 | 0.0 | 0.0 | 0.00 | 0.04 | 0.00 | 81 | 1008.6 |
| 20260904020002 | 59 | 169 | 0.0 | 0.0 | 0.00 | 0.04 | 0.00 | 80 | 1008.6 |
| 20260904014611 | 60 | 169 | 0.9 | 7.0 | 0.00 | 0.04 | 0.04 | 78 | 1008.6 |
| 20260904013045 | 60 | 163 | 0.9 | 7.0 | 0.00 | 0.04 | 0.04 | 77 | 1008.6 |
| 20260904011542 | 61 | 169 | 0.0 | 4.3 | 0.00 | 0.04 | 0.04 | 76 | 1008.5 |
| 20260904010024 | 62 | 228 | 0.9 | 6.1 | 0.00 | 0.04 | 0.04 | 74 | 1008.6 |
| 20260904004523 | 62 | 163 | 0.0 | 7.0 | 0.00 | 0.04 | 0.04 | 75 | 1008.7 |
| 20260904003011 | 60 | 215 | 0.9 | 7.8 | 0.00 | 0.04 | 0.04 | 76 | 1008.6 |
| 20260904001511 | 60 | 192 | 1.7 | 7.0 | 0.00 | 0.04 | 0.04 | 77 | 1008.7 |
| 20260904000011 | 60 | 167 | 4.3 | 8.7 | 0.01 | 0.04 | 0.04 | 81 | 1008.7 |
| 20260903234510 | 58 | 161 | 0.9 | 5.2 | 0.01 | 0.04 | 0.04 | 85 | 1008.7 |
| 20260903233009 | 58 | 161 | 0.9 | 4.3 | 0.01 | 0.04 | 0.04 | 85 | 1008.7 |
| 20260903231509 | 58 | 167 | 0.9 | 7.0 | 0.01 | 0.04 | 0.04 | 86 | 1008.8 |
| 20260903230012 | 58 | 179 | 3.5 | 10.4 | 0.00 | 0.03 | 0.03 | 86 | 1009.1 |
| 20260903224508 | 57 | 202 | 1.7 | 6.1 | 0.00 | 0.03 | 0.03 | 89 | 1009.2 |
| 20260903223128 | 57 | 203 | 0.9 | 5.2 | 0.00 | 0.03 | 0.03 | 89 | 1009.2 |
| 20260903221551 | 57 | 198 | 1.7 | 4.3 | 0.00 | 0.03 | 0.03 | 92 | 1009.2 |
| 20260903220032 | 57 | 189 | 0.9 | 6.1 | 0.00 | 0.03 | 0.03 | 92 | 1009.2 |
| 20260903214534 | 57 | 188 | 0.0 | 7.0 | 0.00 | 0.03 | 0.03 | 93 | 1009.3 |
| 20260903213020 | 56 | 212 | 0.0 | 5.2 | 0.00 | 0.03 | 0.03 | 94 | 1009.4 |
| 20260903211513 | 56 | 214 | 0.0 | 4.3 | 0.00 | 0.03 | 0.03 | 93 | 1009.4 |
| 20260903210119 | 56 | 214 | 1.7 | 6.1 | 0.00 | 0.03 | 0.03 | 91 | 1009.3 |
| 20260903204554 | 57 | 183 | 4.3 | 11.3 | 0.00 | 0.03 | 0.03 | 88 | 1009.2 |
| 20260903203037 | 60 | 209 | 6.1 | 13.0 | 0.00 | 0.03 | 0.03 | 82 | 1009.1 |
| 20260903201535 | 62 | 155 | 4.3 | 16.5 | 0.00 | 0.03 | 0.03 | 75 | 1008.8 |
| 20260903200017 | 62 | 208 | 4.3 | 14.8 | 0.00 | 0.03 | 0.03 | 75 | 1008.8 |
| 20260903194532 | 62 | 229 | 7.0 | 13.0 | 0.00 | 0.04 | 0.03 | 75 | 1008.9 |
| 20260903193058 | 61 | 185 | 5.2 | 12.2 | 0.00 | 0.04 | 0.03 | 79 | 1008.9 |
| 20260903191557 | 61 | 164 | 4.3 | 14.8 | 0.01 | 0.04 | 0.03 | 80 | 1009.0 |
| 20260903190039 | 60 | 205 | 2.6 | 9.6 | 0.01 | 0.04 | 0.03 | 83 | 1009.1 |
| 20260903184548 | 60 | 170 | 6.1 | 13.9 | 0.01 | 0.04 | 0.03 | 83 | 1009.2 |
| 20260903183020 | 60 | 210 | 6.1 | 13.0 | 0.01 | 0.04 | 0.03 | 86 | 1009.1 |
| 20260903181520 | 59 | 196 | 3.5 | 9.6 | 0.00 | 0.03 | 0.02 | 91 | 1008.9 |
| 20260903180006 | 58 | 175 | 0.0 | 5.2 | 0.00 | 0.03 | 0.02 | 93 | 1008.9 |
| 20260903174504 | 58 | 186 | 2.6 | 7.0 | 0.00 | 0.03 | 0.02 | 94 | 1009.0 |
| 20260903173049 | 57 | 184 | 0.0 | 6.1 | 0.00 | 0.03 | 0.02 | 95 | 1008.9 |
| 20260903171551 | 56 | 163 | 2.6 | 7.0 | 0.00 | 0.03 | 0.02 | 95 | 1008.9 |
| 20260903170058 | 55 | 198 | 0.0 | 0.0 | 0.00 | 0.03 | 0.02 | 95 | 1009.2 |
| 20260903164548 | 55 | 189 | 0.0 | 0.0 | 0.01 | 0.03 | 0.02 | 95 | 1009.2 |
| 20260903163047 | 55 | 174 | 3.5 | 8.7 | 0.01 | 0.03 | 0.02 | 95 | 1009.3 |
| 20260903161546 | 55 | 185 | 2.6 | 7.8 | 0.01 | 0.03 | 0.02 | 95 | 1009.2 |
| 20260903160048 | 55 | 181 | 0.9 | 6.1 | 0.01 | 0.03 | 0.02 | 95 | 1009.2 |
| 20260903154544 | 55 | 188 | 4.3 | 9.6 | 0.00 | 0.02 | 0.01 | 95 | 1009.1 |
| 20260903153042 | 55 | 194 | 1.7 | 8.7 | 0.00 | 0.02 | 0.01 | 95 | 1009.2 |
| 20260903151541 | 55 | 194 | 2.6 | 8.7 | 0.00 | 0.02 | 0.01 | 95 | 1009.1 |
| 20260903150020 | 55 | 190 | 3.5 | 8.7 | 0.00 | 0.02 | 0.01 | 95 | 1008.9 |
| 20260903144532 | 55 | 191 | 1.7 | 9.6 | 0.00 | 0.02 | 0.01 | 95 | 1008.9 |
| 20260903143105 | 55 | 189 | 0.0 | 8.7 | 0.00 | 0.02 | 0.01 | 95 | 1008.7 |
| 20260903141609 | 55 | 186 | 3.5 | 9.6 | 0.00 | 0.02 | 0.01 | 95 | 1008.6 |
| 20260903140041 | 55 | 200 | 2.6 | 7.8 | 0.00 | 0.02 | 0.01 | 95 | 1008.6 |
| 20260903134545 | 55 | 198 | 0.0 | 7.8 | 0.00 | 0.02 | 0.01 | 95 | 1008.4 |
| 20260903133018 | 55 | 205 | 0.9 | 7.0 | 0.00 | 0.02 | 0.01 | 94 | 1008.4 |
| 20260903131516 | 55 | 165 | 1.7 | 7.0 | 0.00 | 0.02 | 0.01 | 94 | 1008.4 |